This is the latest recevied weather packets stored in our database for station/object G4RHR. If no packets are shown the sender has not sent any weather packets the latest 10 day(s).
| Time | Temp. | Humidity | Pressure | Rain* | Wind** | Luminosity | Snow |
|---|---|---|---|---|---|---|---|
| 1777169833 | 6.67° C | 93% | 1023.3 hPa | 0 mm | - | - | - |
| 1777169290 | 6.67° C | 93% | 1023.4 hPa | 0 mm | - | - | - |
| 1777168621 | 6.67° C | 93% | 1023.4 hPa | 0 mm | - | - | - |
| 1777168080 | 6.67° C | 93% | 1023.4 hPa | 0 mm | - | - | - |
| 1777164301 | 6.67° C | 91% | 1022.9 hPa | 0 mm | - | - | - |
| 1777163761 | 6.67° C | 92% | 1022.9 hPa | 0 mm | - | - | - |
| 1777162141 | 7.22° C | 91% | 1022.7 hPa | 0 mm | - | - | - |
| 1777158900 | 7.78° C | 90% | 1022.6 hPa | 0 mm | - | - | - |
| 1777158492 | 7.78° C | 89% | 1022.6 hPa | 0 mm | - | - | - |
| 1777156331 | 8.33° C | 88% | 1022.4 hPa | 0 mm | - | - | - |
| 1777155794 | 8.33° C | 87% | 1022.4 hPa | 0 mm | - | - | - |
| 1777138381 | 16.11° C | 33% | 1019.6 hPa | 0 mm | - | - | - |
| 1777135141 | 17.78° C | 39% | 1019.4 hPa | 0 mm | - | - | - |
| 1777131901 | 17.78° C | 37% | 1019.4 hPa | 0 mm | - | - | - |
| 1777129200 | 17.78° C | 44% | 1019.6 hPa | 0 mm | - | - | - |
| 1777128253 | 17.78° C | 43% | 1019.6 hPa | 0 mm | - | - | - |
| 1777125961 | 18.89° C | 49% | 1019.7 hPa | 0 mm | - | - | - |
| 1777124881 | 18.33° C | 49% | 1019.8 hPa | 0 mm | - | - | - |
| 1777121101 | 17.78° C | 43% | 1020.1 hPa | 0 mm | - | - | - |
| 1777116243 | 18.33° C | 43% | 1020.2 hPa | 0 mm | - | - | - |
| 1777114620 | 16.11° C | 48% | 1020.4 hPa | 0 mm | - | - | - |
| 1777113672 | 16.11° C | 53% | 1020.5 hPa | 0 mm | - | - | - |
| 1777109759 | 11.67° C | 75% | 1020.7 hPa | 0 mm | - | - | - |
| 1777106521 | 7.78° C | 96% | 1020.7 hPa | 0 mm | - | - | - |
| 1777102740 | 5° C | 96% | 1021 hPa | 0 mm | - | - | - |
* Rain latest hour (hover to see other rain measurements)
** Current wind speed in m/s (hover to see current wind gust speed)